createdAt,value
2018-09-24T00:00:48.897Z,10.70
2018-09-24T00:03:17.222Z,10.70
2018-09-24T00:05:45.555Z,10.70
2018-09-24T00:08:13.947Z,10.70
2018-09-24T00:10:42.302Z,10.80
2018-09-24T00:13:10.635Z,10.70
2018-09-24T00:15:38.983Z,10.70
2018-09-24T00:18:07.376Z,10.70
2018-09-24T00:20:35.696Z,10.70
2018-09-24T00:23:04.027Z,10.70
2018-09-24T00:25:32.389Z,10.60
2018-09-24T00:28:00.931Z,10.60
2018-09-24T00:30:29.228Z,10.60
2018-09-24T00:32:57.606Z,10.60
2018-09-24T00:35:26.028Z,10.60
2018-09-24T00:37:54.408Z,10.60
2018-09-24T00:40:22.760Z,10.50
2018-09-24T00:42:51.072Z,10.50
2018-09-24T00:45:19.437Z,10.50
2018-09-24T00:47:47.888Z,10.50
2018-09-24T00:50:16.203Z,10.50
2018-09-24T00:52:44.570Z,10.50
2018-09-24T00:55:12.944Z,10.50
2018-09-24T00:57:41.447Z,10.50
2018-09-24T01:00:09.747Z,10.40
2018-09-24T01:02:38.104Z,10.50
2018-09-24T01:05:06.600Z,10.40
2018-09-24T01:07:34.999Z,10.40
2018-09-24T01:10:03.323Z,10.40
2018-09-24T01:12:31.657Z,10.40
2018-09-24T01:14:59.992Z,10.40
2018-09-24T01:17:28.413Z,10.40
2018-09-24T01:19:56.877Z,10.40
2018-09-24T01:22:25.189Z,10.40
2018-09-24T01:24:53.575Z,10.30
2018-09-24T01:27:21.903Z,10.40
2018-09-24T01:29:50.220Z,10.30
2018-09-24T01:32:18.710Z,10.30
2018-09-24T01:34:47.184Z,10.40
2018-09-24T01:37:15.551Z,10.30
2018-09-24T01:39:43.881Z,10.40
2018-09-24T01:42:12.189Z,10.30
2018-09-24T01:44:40.865Z,10.30
2018-09-24T01:47:09.284Z,10.30
2018-09-24T01:49:37.637Z,10.40
2018-09-24T01:52:05.973Z,10.30
2018-09-24T01:54:34.319Z,10.30
2018-09-24T01:57:02.691Z,10.30
2018-09-24T01:59:31.009Z,10.30
2018-09-24T02:01:59.391Z,10.30
2018-09-24T02:04:27.791Z,10.30
2018-09-24T02:07:02.839Z,10.20
2018-09-24T02:09:31.510Z,10.30
2018-09-24T02:12:04.833Z,10.20
2018-09-24T02:14:33.292Z,10.30
2018-09-24T02:17:01.855Z,10.20
2018-09-24T02:19:30.218Z,10.20
2018-09-24T02:21:58.608Z,10.10
2018-09-24T02:24:27.026Z,10.20
2018-09-24T02:26:55.397Z,10.20
2018-09-24T02:29:23.752Z,10.20
2018-09-24T02:31:52.072Z,10.10
2018-09-24T02:34:26.766Z,10.10
2018-09-24T02:36:55.221Z,10.20
2018-09-24T02:39:23.542Z,10.20
2018-09-24T02:41:53.812Z,10.20
2018-09-24T02:44:23.228Z,10.30
2018-09-24T02:46:51.732Z,10.30
2018-09-24T02:49:20.166Z,10.20
2018-09-24T02:51:48.521Z,10.20
2018-09-24T02:54:16.849Z,10.20
2018-09-24T02:56:47.436Z,10.30
2018-09-24T02:59:15.905Z,10.30
2018-09-24T03:01:44.320Z,10.20
2018-09-24T03:04:12.619Z,10.10
2018-09-24T03:06:40.960Z,10.10
2018-09-24T03:09:11.730Z,10.10
2018-09-24T03:11:40.195Z,10.10
2018-09-24T03:14:08.593Z,10.10
2018-09-24T03:16:37.271Z,10.00
2018-09-24T03:19:05.632Z,10.00
2018-09-24T03:21:33.951Z,9.90
2018-09-24T03:24:02.428Z,9.90
2018-09-24T03:26:30.839Z,9.90
2018-09-24T03:28:59.249Z,9.90
2018-09-24T03:31:27.593Z,9.90
2018-09-24T03:33:56.084Z,9.90
2018-09-24T03:36:24.524Z,9.90
2018-09-24T03:38:52.831Z,9.90
2018-09-24T03:41:21.200Z,9.90
2018-09-24T03:43:49.656Z,9.90
2018-09-24T03:46:18.095Z,9.90
2018-09-24T03:48:46.501Z,9.80
2018-09-24T03:51:14.851Z,9.80
2018-09-24T03:53:43.325Z,9.80
2018-09-24T03:56:11.668Z,9.80
2018-09-24T03:58:40.075Z,9.80
2018-09-24T04:01:08.415Z,9.70
2018-09-24T04:03:36.877Z,9.80
2018-09-24T04:06:10.465Z,9.70
2018-09-24T04:08:44.202Z,9.70
2018-09-24T04:11:17.838Z,9.70
2018-09-24T04:13:51.524Z,9.70
2018-09-24T04:16:25.144Z,9.60
2018-09-24T04:18:58.844Z,9.60
2018-09-24T04:21:32.616Z,9.60
2018-09-24T04:24:06.402Z,9.60
2018-09-24T04:26:40.077Z,9.60
2018-09-24T04:29:13.822Z,9.60
2018-09-24T04:31:47.526Z,9.60
2018-09-24T04:34:21.143Z,9.60
2018-09-24T04:36:54.819Z,9.60
2018-09-24T04:39:28.575Z,9.50
2018-09-24T04:42:02.069Z,9.50
2018-09-24T04:44:35.740Z,9.50
2018-09-24T04:47:09.428Z,9.60
2018-09-24T04:49:43.082Z,9.60
2018-09-24T04:54:51.079Z,9.50
2018-09-24T04:57:24.717Z,9.50
2018-09-24T04:59:58.355Z,9.50
2018-09-24T05:02:31.957Z,9.50
2018-09-24T05:05:05.645Z,9.50
2018-09-24T05:07:39.387Z,9.40
2018-09-24T05:10:13.183Z,9.40
2018-09-24T05:12:46.986Z,9.40
2018-09-24T05:15:20.804Z,9.40
2018-09-24T05:17:54.547Z,9.30
2018-09-24T05:20:28.363Z,9.30
2018-09-24T05:23:02.149Z,9.40
2018-09-24T05:25:35.853Z,9.30
2018-09-24T05:28:09.610Z,9.30
2018-09-24T05:30:43.495Z,9.30
2018-09-24T05:33:17.263Z,9.30
2018-09-24T05:35:51.106Z,9.30
2018-09-24T05:38:24.869Z,9.30
2018-09-24T05:40:58.699Z,9.30
2018-09-24T05:43:32.484Z,9.40
2018-09-24T05:46:06.280Z,9.40
2018-09-24T05:48:39.999Z,9.40
2018-09-24T05:51:13.878Z,9.50
2018-09-24T05:53:47.616Z,9.50
2018-09-24T05:56:21.360Z,9.40
2018-09-24T05:58:55.040Z,9.50
2018-09-24T06:01:28.727Z,9.50
2018-09-24T06:04:02.552Z,9.50
2018-09-24T06:06:36.356Z,9.60
2018-09-24T06:09:12.855Z,9.60
2018-09-24T06:11:46.912Z,9.60
2018-09-24T06:14:20.643Z,9.70
2018-09-24T06:16:54.289Z,9.70
2018-09-24T06:19:28.029Z,9.80
2018-09-24T06:22:01.596Z,9.70
2018-09-24T06:24:35.292Z,9.80
2018-09-24T06:27:09.016Z,9.80
2018-09-24T06:29:42.824Z,9.90
2018-09-24T06:32:16.516Z,9.90
2018-09-24T06:34:50.040Z,10.00
2018-09-24T06:37:23.627Z,10.00
2018-09-24T06:39:57.323Z,10.10
2018-09-24T06:42:31.147Z,10.10
2018-09-24T06:45:04.768Z,10.20
2018-09-24T06:47:38.452Z,10.20
2018-09-24T06:50:12.166Z,10.30
2018-09-24T06:52:45.939Z,10.30
2018-09-24T06:55:19.767Z,10.30
2018-09-24T06:57:53.510Z,10.40
2018-09-24T07:00:27.063Z,10.40
2018-09-24T07:03:00.804Z,10.40
2018-09-24T07:05:34.585Z,10.50
2018-09-24T07:08:08.207Z,10.50
2018-09-24T07:10:41.827Z,10.60
2018-09-24T07:16:00.563Z,10.70
2018-09-24T07:18:34.436Z,10.80
2018-09-24T07:21:08.293Z,10.90
2018-09-24T07:23:41.951Z,10.90
2018-09-24T07:26:15.797Z,11.00
2018-09-24T07:28:49.727Z,11.00
2018-09-24T07:31:36.073Z,11.10
2018-09-24T07:34:10.735Z,11.10
2018-09-24T07:36:45.988Z,11.20
2018-09-24T07:39:21.925Z,11.20
2018-09-24T07:41:57.247Z,11.30
2018-09-24T07:44:31.032Z,11.40
2018-09-24T07:47:04.690Z,11.40
2018-09-24T07:49:38.645Z,11.40
2018-09-24T07:52:12.416Z,11.50
2018-09-24T07:54:46.239Z,11.40
2018-09-24T07:57:20.030Z,11.40
2018-09-24T07:59:53.858Z,11.50
2018-09-24T08:02:27.473Z,11.60
2018-09-24T08:05:01.356Z,11.60
2018-09-24T08:07:35.295Z,11.70
2018-09-24T08:10:09.079Z,11.70
2018-09-24T08:12:42.744Z,11.80
2018-09-24T08:15:16.531Z,11.80
2018-09-24T08:17:50.498Z,11.80
2018-09-24T08:20:24.282Z,12.00
2018-09-24T08:22:58.119Z,12.10
2018-09-24T08:25:31.872Z,12.10
2018-09-24T08:28:05.871Z,12.20
2018-09-24T08:30:39.766Z,12.40
2018-09-24T08:33:13.615Z,12.40
2018-09-24T08:35:47.451Z,12.50
2018-09-24T08:38:21.328Z,12.60
2018-09-24T08:40:55.050Z,12.60
2018-09-24T08:43:28.860Z,12.80
2018-09-24T08:46:02.709Z,12.70
2018-09-24T08:48:36.550Z,12.60
2018-09-24T08:51:10.294Z,12.60
2018-09-24T08:53:44.111Z,12.60
2018-09-24T08:56:18.039Z,12.70
2018-09-24T08:58:51.768Z,12.70
2018-09-24T09:01:25.569Z,12.80
2018-09-24T09:03:59.409Z,12.80
2018-09-24T09:06:33.202Z,12.70
2018-09-24T09:09:06.958Z,12.70
2018-09-24T09:11:40.602Z,12.80
2018-09-24T09:14:14.327Z,12.90
2018-09-24T09:16:48.017Z,13.00
2018-09-24T09:19:21.691Z,13.00
2018-09-24T09:21:55.441Z,12.90
2018-09-24T09:24:29.221Z,13.00
2018-09-24T09:27:02.958Z,13.00
2018-09-24T09:29:36.768Z,13.00
2018-09-24T09:32:10.572Z,13.20
2018-09-24T09:34:44.326Z,13.40
2018-09-24T09:37:18.041Z,13.30
2018-09-24T09:39:51.736Z,13.40
2018-09-24T09:42:25.644Z,13.40
2018-09-24T09:44:59.395Z,13.40
2018-09-24T09:47:33.058Z,13.70
2018-09-24T09:50:07.396Z,13.80
2018-09-24T09:52:41.219Z,13.90
2018-09-24T09:55:14.992Z,14.00
2018-09-24T09:57:49.056Z,14.10
2018-09-24T10:00:22.744Z,14.10
2018-09-24T10:02:56.750Z,13.90
2018-09-24T10:05:30.672Z,14.00
2018-09-24T10:08:04.551Z,14.10
2018-09-24T10:10:38.213Z,14.10
2018-09-24T10:13:13.233Z,14.20
2018-09-24T10:15:46.933Z,14.30
2018-09-24T10:18:20.649Z,14.50
2018-09-24T10:20:54.565Z,14.60
2018-09-24T10:23:28.499Z,14.60
2018-09-24T10:26:03.312Z,14.50
2018-09-24T10:28:37.060Z,14.50
2018-09-24T10:31:10.859Z,14.50
2018-09-24T10:33:44.762Z,14.40
2018-09-24T10:36:18.451Z,14.50
2018-09-24T10:38:52.297Z,14.40
2018-09-24T10:41:26.152Z,14.50
2018-09-24T10:43:59.813Z,14.50
2018-09-24T10:46:33.701Z,14.50
2018-09-24T10:49:07.510Z,14.70
2018-09-24T10:51:41.340Z,14.90
2018-09-24T10:54:15.033Z,15.00
2018-09-24T10:56:48.890Z,14.80
2018-09-24T10:59:22.725Z,14.80
2018-09-24T11:01:56.523Z,14.70
2018-09-24T11:04:30.297Z,14.60
2018-09-24T11:07:04.413Z,14.80
2018-09-24T11:09:38.352Z,14.90
2018-09-24T11:12:12.164Z,15.00
2018-09-24T11:14:45.702Z,15.00
2018-09-24T11:17:19.598Z,15.00
2018-09-24T11:19:53.228Z,15.10
2018-09-24T11:22:27.223Z,15.10
2018-09-24T11:25:00.963Z,15.30
2018-09-24T11:27:34.906Z,15.20
2018-09-24T11:30:08.867Z,15.10
2018-09-24T11:35:34.399Z,15.30
2018-09-24T11:38:08.368Z,15.40
2018-09-24T11:40:42.112Z,15.50
2018-09-24T11:43:15.765Z,15.60
2018-09-24T11:45:49.594Z,15.60
2018-09-24T11:48:23.364Z,15.70
2018-09-24T11:50:57.003Z,15.80
2018-09-24T11:53:30.808Z,15.40
2018-09-24T11:56:04.423Z,15.40
2018-09-24T11:58:38.264Z,15.30
2018-09-24T12:01:12.292Z,15.30
2018-09-24T12:03:46.031Z,15.10
2018-09-24T12:06:19.649Z,15.00
2018-09-24T12:08:53.323Z,15.10
2018-09-24T12:11:26.936Z,15.10
2018-09-24T12:14:00.556Z,15.00
2018-09-24T12:16:34.202Z,15.10
2018-09-24T12:19:08.092Z,15.20
2018-09-24T12:21:41.815Z,15.10
2018-09-24T12:24:15.733Z,15.10
2018-09-24T12:26:49.542Z,15.20
2018-09-24T12:29:23.290Z,15.20
2018-09-24T12:31:56.995Z,15.20
2018-09-24T12:34:30.853Z,15.30
2018-09-24T12:37:04.591Z,15.30
2018-09-24T12:39:38.346Z,15.40
2018-09-24T12:42:12.048Z,15.30
2018-09-24T12:44:45.630Z,15.20
2018-09-24T12:47:19.430Z,15.20
2018-09-24T12:49:53.144Z,15.40
2018-09-24T12:52:26.919Z,15.60
2018-09-24T12:55:00.731Z,15.60
2018-09-24T12:57:34.535Z,15.70
2018-09-24T13:00:08.592Z,15.50
2018-09-24T13:02:42.416Z,15.50
2018-09-24T13:05:16.051Z,15.20
2018-09-24T13:07:49.823Z,15.00
2018-09-24T13:10:23.591Z,14.90
2018-09-24T13:12:57.268Z,14.80
2018-09-24T13:15:31.111Z,15.00
2018-09-24T13:18:04.888Z,15.00
2018-09-24T13:20:38.796Z,15.20
2018-09-24T13:23:13.094Z,15.20
2018-09-24T13:25:46.883Z,15.30
2018-09-24T13:28:20.810Z,15.40
2018-09-24T13:30:54.447Z,15.40
2018-09-24T13:33:28.097Z,15.50
2018-09-24T13:36:08.786Z,15.70
2018-09-24T13:38:42.533Z,15.80
2018-09-24T13:41:16.584Z,15.80
2018-09-24T13:43:50.340Z,15.90
2018-09-24T13:46:24.052Z,16.40
2018-09-24T13:48:57.832Z,16.60
2018-09-24T13:51:31.575Z,16.70
2018-09-24T13:54:05.311Z,16.60
2018-09-24T13:56:39.139Z,17.00
2018-09-24T13:59:12.859Z,17.50
2018-09-24T14:01:47.818Z,17.00
2018-09-24T14:04:21.800Z,17.90
2018-09-24T14:06:55.737Z,18.10
2018-09-24T14:09:29.497Z,18.60
2018-09-24T14:12:03.296Z,18.90
2018-09-24T14:14:37.114Z,19.20
2018-09-24T14:17:11.099Z,19.60
2018-09-24T14:19:44.802Z,20.20
2018-09-24T14:22:18.420Z,19.60
2018-09-24T14:24:52.100Z,18.80
2018-09-24T14:27:25.849Z,18.50
2018-09-24T14:29:59.610Z,19.40
2018-09-24T14:32:33.234Z,19.70
2018-09-24T14:35:07.066Z,20.20
2018-09-24T14:37:40.678Z,20.30
2018-09-24T14:40:14.438Z,19.90
2018-09-24T14:42:48.604Z,18.00
2018-09-24T14:45:24.889Z,17.20
2018-09-24T14:47:58.759Z,17.30
2018-09-24T14:50:32.384Z,17.90
2018-09-24T14:53:06.105Z,17.30
2018-09-24T14:55:39.845Z,17.90
2018-09-24T14:58:13.800Z,17.70
2018-09-24T15:00:47.671Z,17.70
2018-09-24T15:03:21.383Z,17.50
2018-09-24T15:05:55.217Z,17.60
2018-09-24T15:08:29.072Z,17.20
2018-09-24T15:11:02.882Z,17.40
2018-09-24T15:13:36.582Z,17.10
2018-09-24T15:16:10.433Z,17.10
2018-09-24T15:18:44.452Z,17.00
2018-09-24T15:21:18.249Z,16.50
2018-09-24T15:23:52.147Z,16.40
2018-09-24T15:26:25.980Z,16.40
2018-09-24T15:28:59.603Z,16.20
2018-09-24T15:31:33.384Z,16.10
2018-09-24T15:34:07.116Z,15.90
2018-09-24T15:36:40.685Z,15.70
2018-09-24T15:39:14.313Z,15.60
2018-09-24T15:41:48.039Z,15.60
2018-09-24T15:44:21.616Z,15.40
2018-09-24T15:46:55.432Z,15.50
2018-09-24T15:49:29.259Z,15.30
2018-09-24T15:52:02.873Z,15.20
2018-09-24T15:54:36.651Z,15.40
2018-09-24T15:57:10.475Z,15.30
2018-09-24T15:59:44.287Z,15.10
2018-09-24T16:02:18.008Z,15.10
2018-09-24T16:04:51.705Z,15.30
2018-09-24T16:07:25.647Z,15.30
2018-09-24T16:09:59.248Z,15.30
2018-09-24T16:12:32.901Z,15.10
2018-09-24T16:15:06.698Z,15.10
2018-09-24T16:17:40.538Z,15.10
2018-09-24T16:20:14.263Z,15.10
2018-09-24T16:22:48.144Z,15.10
2018-09-24T16:25:21.995Z,14.90
2018-09-24T16:28:02.511Z,14.80
2018-09-24T16:30:36.232Z,14.70
2018-09-24T16:33:10.006Z,14.60
2018-09-24T16:35:44.057Z,14.50
2018-09-24T16:38:17.649Z,14.40
2018-09-24T16:40:51.503Z,14.40
2018-09-24T16:43:25.262Z,14.30
2018-09-24T16:48:26.317Z,14.20
2018-09-24T16:50:59.940Z,14.10
2018-09-24T16:53:33.729Z,14.10
2018-09-24T16:56:07.483Z,14.10
2018-09-24T16:58:41.182Z,14.10
2018-09-24T17:01:14.987Z,13.90
2018-09-24T17:03:48.760Z,13.90
2018-09-24T17:06:22.420Z,13.80
2018-09-24T17:08:56.160Z,13.80
2018-09-24T17:11:29.702Z,13.80
2018-09-24T17:14:03.442Z,13.70
2018-09-24T17:16:37.873Z,13.80
2018-09-24T17:19:11.703Z,13.60
2018-09-24T17:21:46.475Z,13.60
2018-09-24T17:24:20.834Z,13.50
2018-09-24T17:26:54.487Z,13.50
2018-09-24T17:29:28.296Z,13.40
2018-09-24T17:32:02.065Z,13.30
2018-09-24T17:34:35.710Z,13.30
2018-09-24T17:37:09.413Z,13.20
2018-09-24T17:39:43.236Z,13.20
2018-09-24T17:42:17.138Z,13.10
2018-09-24T17:44:50.947Z,13.10
2018-09-24T17:47:24.764Z,13.10
2018-09-24T17:49:58.566Z,13.10
2018-09-24T17:52:32.383Z,13.10
2018-09-24T17:55:06.231Z,13.00
2018-09-24T17:57:40.229Z,12.90
2018-09-24T18:00:14.109Z,12.90
2018-09-24T18:02:47.897Z,12.80
2018-09-24T18:05:21.762Z,12.80
2018-09-24T18:07:56.522Z,12.80
2018-09-24T18:10:30.194Z,12.70
2018-09-24T18:13:04.027Z,12.70
2018-09-24T18:15:37.849Z,12.70
2018-09-24T18:18:11.526Z,12.60
2018-09-24T18:20:45.427Z,12.60
2018-09-24T18:23:20.480Z,12.50
2018-09-24T18:25:54.433Z,12.50
2018-09-24T18:28:28.406Z,12.40
2018-09-24T18:31:02.013Z,12.40
2018-09-24T18:33:36.483Z,12.30
2018-09-24T18:36:10.148Z,12.30
2018-09-24T18:38:43.931Z,12.20
2018-09-24T18:41:17.845Z,12.20
2018-09-24T18:43:51.685Z,12.10
2018-09-24T18:46:25.591Z,12.00
2018-09-24T18:48:59.364Z,11.90
2018-09-24T18:51:33.014Z,11.90
2018-09-24T18:54:06.888Z,11.70
2018-09-24T18:56:40.670Z,11.80
2018-09-24T18:59:14.427Z,11.70
2018-09-24T19:01:48.167Z,11.70
2018-09-24T19:04:21.989Z,11.70
2018-09-24T19:06:55.709Z,11.60
2018-09-24T19:09:29.519Z,11.70
2018-09-24T19:12:03.204Z,11.60
2018-09-24T19:14:37.045Z,11.60
2018-09-24T19:17:10.957Z,11.50
2018-09-24T19:19:44.897Z,11.50
2018-09-24T19:22:18.620Z,11.50
2018-09-24T19:24:52.392Z,11.60
2018-09-24T19:27:26.216Z,11.40
2018-09-24T19:30:00.082Z,11.40
2018-09-24T19:32:34.072Z,11.30
2018-09-24T19:35:07.643Z,11.30
2018-09-24T19:37:41.472Z,11.30
2018-09-24T19:40:15.184Z,11.30
2018-09-24T19:42:49.056Z,11.30
2018-09-24T19:45:22.944Z,11.30
2018-09-24T19:47:56.651Z,11.30
2018-09-24T19:50:30.749Z,11.40
2018-09-24T19:53:04.383Z,11.30
2018-09-24T19:55:38.082Z,11.30
2018-09-24T19:58:11.944Z,11.30
2018-09-24T20:00:45.635Z,11.20
2018-09-24T20:03:19.200Z,11.20
2018-09-24T20:05:52.966Z,11.20
2018-09-24T20:08:26.734Z,11.20
2018-09-24T20:11:00.481Z,11.20
2018-09-24T20:13:34.182Z,11.10
2018-09-24T20:16:07.907Z,11.10
2018-09-24T20:18:41.725Z,11.10
2018-09-24T20:21:15.451Z,11.10
2018-09-24T20:23:49.127Z,11.10
2018-09-24T20:26:22.851Z,11.00
2018-09-24T20:28:56.682Z,11.00
2018-09-24T20:31:30.519Z,11.00
2018-09-24T20:34:04.228Z,10.90
2018-09-24T20:36:38.029Z,11.00
2018-09-24T20:39:13.420Z,11.00
2018-09-24T20:41:48.122Z,11.00
2018-09-24T20:44:22.147Z,10.90
2018-09-24T20:46:55.749Z,11.00
2018-09-24T20:49:29.456Z,11.00
2018-09-24T20:52:03.048Z,11.00
2018-09-24T20:54:36.760Z,11.10
2018-09-24T20:57:10.546Z,11.10
2018-09-24T20:59:44.327Z,11.10
2018-09-24T21:02:18.222Z,11.10
2018-09-24T21:04:51.945Z,11.10
2018-09-24T21:07:25.745Z,11.10
2018-09-24T21:09:59.505Z,11.10
2018-09-24T21:12:33.318Z,11.20
2018-09-24T21:15:07.118Z,11.10
2018-09-24T21:17:40.925Z,11.10
2018-09-24T21:20:14.648Z,11.10
2018-09-24T21:22:48.190Z,11.10
2018-09-24T21:25:22.008Z,11.10
2018-09-24T21:27:55.735Z,11.00
2018-09-24T21:30:29.603Z,11.00
2018-09-24T21:33:03.370Z,11.00
2018-09-24T21:35:36.945Z,10.90
2018-09-24T21:38:10.804Z,11.00
2018-09-24T21:40:44.532Z,10.90
2018-09-24T21:43:18.432Z,11.00
2018-09-24T21:45:52.155Z,11.00
2018-09-24T21:48:25.936Z,11.00
2018-09-24T21:51:00.169Z,11.00
2018-09-24T21:53:33.983Z,11.00
2018-09-24T21:56:07.784Z,11.00
2018-09-24T21:58:41.711Z,11.10
2018-09-24T22:01:15.491Z,11.10
2018-09-24T22:03:49.333Z,11.10
2018-09-24T22:06:23.239Z,11.10
2018-09-24T22:08:56.964Z,11.10
2018-09-24T22:11:30.652Z,11.10
2018-09-24T22:14:04.503Z,11.10
2018-09-24T22:16:38.255Z,11.00
2018-09-24T22:19:11.974Z,11.00
2018-09-24T22:21:46.003Z,11.00
2018-09-24T22:24:19.637Z,11.00
2018-09-24T22:26:53.459Z,11.00
2018-09-24T22:29:27.252Z,11.00
2018-09-24T22:32:00.955Z,10.90
2018-09-24T22:34:34.684Z,10.90
2018-09-24T22:37:08.379Z,10.80
2018-09-24T22:39:43.513Z,10.80
2018-09-24T22:42:17.221Z,10.80
2018-09-24T22:44:50.971Z,10.80
2018-09-24T22:47:24.725Z,10.80
2018-09-24T22:49:58.397Z,10.80
2018-09-24T22:52:32.162Z,10.70
2018-09-24T22:55:05.990Z,10.70
2018-09-24T22:57:39.727Z,10.70
2018-09-24T23:00:13.414Z,10.70
2018-09-24T23:02:47.151Z,10.60
2018-09-24T23:05:20.931Z,10.70
2018-09-24T23:07:54.529Z,10.60
2018-09-24T23:10:33.350Z,10.60
2018-09-24T23:13:06.963Z,10.50
2018-09-24T23:15:40.799Z,10.40
2018-09-24T23:18:14.626Z,10.40
2018-09-24T23:20:48.955Z,10.40
2018-09-24T23:23:22.759Z,10.40
2018-09-24T23:25:56.483Z,10.40
2018-09-24T23:28:30.391Z,10.40
2018-09-24T23:31:03.971Z,10.40
2018-09-24T23:33:37.884Z,10.40
2018-09-24T23:36:11.724Z,10.40
2018-09-24T23:38:45.510Z,10.40
2018-09-24T23:41:19.211Z,10.40
2018-09-24T23:43:53.048Z,10.40
2018-09-24T23:46:26.911Z,10.40
2018-09-24T23:49:00.999Z,10.30
2018-09-24T23:51:34.580Z,10.20
2018-09-24T23:54:08.395Z,10.20
2018-09-24T23:56:42.154Z,10.30
2018-09-24T23:59:16.002Z,10.20
